Vista Casco antiguo Xert more information Vista Casco antiguo Xert


Thunder radar more information blitzortung!


Rain radar  rain snow radar


Visita nuestra red de sitios de meteo:

Template documentation
and downloads

El Tiempo en XertWeb Principal

Meteotemplate: El tiempo en XertPlantilla Meteotemplate

Dashboard34: El tiempo en XertPlantilla V34

GraphWeather: El tiempo en XertPlantilla GraphWeather



No se requiere una conciencia particular del clima.    No hay advertencias meteorologicas.

Informes METAR proximidad

   
LEBL - Barcelona
Actualización: 01-12-2020 09:30
Nubes dispersas  
Nubes dispersas  
   Viento: NNW 20.4 km/h
Viento: NNW 20.4 km/h
Temperatura: 9°C
Térmica: 6°C
Punto de rocío: 7°C
Humedad relativa: 87%
Presión: 1021 hPa
Nubes: Nubes dispersas
Visibilidad: More than 10 km
detalles de la nube: Nubes dispersas 1500 ft
LEBL 010830Z 33011KT 9999 FEW015 09/07 Q1021 NOSIG
LEVC - Valencia
Actualización: 01-12-2020 09:30
Claros  
Claros  
   Viento: varía 3.7 km/h
Viento: varía 3.7 km/h
Temperatura: 10°C
Punto de rocío: 9°C
Humedad relativa: 94%
Presión: 1021 hPa
Visibilidad: More than 10 km
detalles de la nube: Claros
LEVC 010830Z VRB02KT CAVOK 10/09 Q1021 NOSIG
LEMD - Madrid
Actualización: 01-12-2020 09:30
Claros  
Claros  
   Viento: calma
Viento: calma
Temperatura: 2°C
Punto de rocío: 1°C
Humedad relativa: 93%
Presión: 1024 hPa
Visibilidad: More than 10 km
detalles de la nube: Claros
LEMD 010830Z 00000KT CAVOK 02/01 Q1024 NOSIG
LEAL - Alicante
Actualización: 01-12-2020 09:30
Claros  
Claros  
   Viento: West 7.4 km/h
Viento: West 7.4 km/h
Temperatura: 13°C
Punto de rocío: 9°C
Humedad relativa: 77%
Presión: 1021 hPa
Visibilidad: More than 10 km
detalles de la nube: Claros
LEAL 010830Z 26004KT 210V290 CAVOK 13/09 Q1021 NOSIG
LEZG - Zaragoza
Actualización: 01-12-2020 09:30
Claros  
Claros  
   Viento: West 18.5 km/h
Viento: West 18.5 km/h
Temperatura: 7°C
Térmica: 4°C
Punto de rocío: 3°C
Humedad relativa: 76%
Presión: 1023 hPa
Visibilidad: More than 10 km
detalles de la nube: Claros
LEZG 010830Z 28010KT CAVOK 07/03 Q1023
LEPA - Baleares, Palma Mallorca
Actualización: 01-12-2020 09:30
Nubes dispersas  
Nubes dispersas  
   Viento: North 3.7 km/h
Viento: North 3.7 km/h
Temperatura: 11°C
Punto de rocío: 11°C
Humedad relativa: 100%
Presión: 1021 hPa
Nubes: Nubes dispersas
Visibilidad: More than 10 km
detalles de la nube: Nubes dispersas 2000 ft
LEPA 010830Z 01002KT 9999 FEW020 11/11 Q1021 NOSIG

Guión original por  Saratoga-weather.org Adaptado para la plantilla por  Weerstation Leuven

Te das cuenta de información de tiempo también en:

UK Metoffice

WeatherCloud

Weather Underground

Xert, Pla de la Font

AWEKAS

WeatherlinkIP

Citizen Weather Observer Program (CWOP)

HAMweather, WeatherForYou, PWS Weather

Equipo usamos:

Weather-station
Davis Vantage VUE

Weather-program
Davis Weatherlink.Com

Weather-server
My Computer

Proveedor
Hostinger

Davis Vantage VUE

Davis Weatherlink.Com

My Computer

Hostinger